Time;durP1;ratioP1;P1;durP2;ratioP2;P2;SDS_P1;SDS_P2;PMS_P1;PMS_P2;Temp;Humidity;BMP_temperature;BMP_pressure;BME280_temperature;BME280_humidity;BME280_pressure;Samples;Min_cycle;Max_cycle;Signal;HPM_P1;HPM_P2
2020/12/11 09:07:14;;;;;;;11.05;6.15;;;18.10;66.50;;;;;;5122356;27;20417;-51
2020/12/11 09:09:39;;;;;;;12.55;6.13;;;18.10;66.70;;;;;;5121793;28;20400;-48
2020/12/11 09:12:05;;;;;;;7.80;5.93;;;18.10;66.80;;;;;;5122536;28;20491;-47
2020/12/11 09:14:31;;;;;;;10.07;5.70;;;18.20;66.20;;;;;;5126521;28;20047;-48
2020/12/11 09:16:57;;;;;;;10.18;5.35;;;18.10;66.10;;;;;;5125330;28;20031;-45
2020/12/11 09:19:22;;;;;;;10.68;5.85;;;18.10;66.10;;;;;;5120405;28;20031;-50
2020/12/11 09:21:48;;;;;;;10.57;6.10;;;18.10;66.20;;;;;;5119101;28;20577;-46
2020/12/11 09:24:13;;;;;;;12.32;5.72;;;18.20;66.50;;;;;;5116866;27;20031;-46
2020/12/11 09:26:40;;;;;;;8.35;5.70;;;18.30;66.20;;;;;;5122206;28;20040;-46
2020/12/11 09:31:35;;;;;;;6.93;5.72;;;18.30;66.60;;;;;;5124629;28;20039;-45
2020/12/11 09:34:00;;;;;;;8.20;5.45;;;18.30;66.00;;;;;;5124871;28;20057;-45
2020/12/11 09:36:26;;;;;;;8.48;5.57;;;18.30;66.10;;;;;;5125824;27;20019;-46
2020/12/11 09:38:52;;;;;;;10.75;5.38;;;18.40;66.40;;;;;;5123512;28;20034;-46
2020/12/11 09:41:23;;;;;;;6.45;5.25;;;18.40;66.00;;;;;;5125155;28;20038;-44
2020/12/11 09:45:15;;;;;;;8.25;4.75;;;18.40;66.30;;;;;;5123881;27;20351;-56
2020/12/11 09:50:28;;;;;;;7.75;4.72;;;18.50;65.70;;;;;;5125898;28;20031;-57
2020/12/11 09:55:22;;;;;;;7.10;4.65;;;18.50;65.70;;;;;;5124155;27;20479;-43
2020/12/11 09:57:47;;;;;;;7.47;4.45;;;18.50;65.70;;;;;;5121077;28;20022;-45
2020/12/11 10:00:13;;;;;;;7.97;4.40;;;18.50;65.50;;;;;;5123678;28;20076;-51
2020/12/11 10:02:57;;;;;;;5.40;3.97;;;18.50;65.60;;;;;;5123438;28;20019;-47
2020/12/11 10:05:23;;;;;;;4.97;4.30;;;18.50;65.30;;;;;;5124743;28;20035;-45
2020/12/11 10:07:49;;;;;;;5.95;4.55;;;18.50;65.40;;;;;;5123981;28;20423;-45
2020/12/11 10:10:16;;;;;;;7.25;4.07;;;18.50;65.50;;;;;;5124328;28;20019;-45
2020/12/11 10:12:42;;;;;;;5.28;4.38;;;18.50;65.80;;;;;;5122720;28;20031;-45
2020/12/11 10:15:09;;;;;;;8.38;4.05;;;18.60;66.00;;;;;;5124340;28;20395;-45
2020/12/11 10:17:35;;;;;;;6.15;3.50;;;18.50;66.20;;;;;;5124944;28;20413;-43
2020/12/11 10:20:00;;;;;;;5.68;3.00;;;18.60;66.70;;;;;;5124582;28;20023;-46
2020/12/11 10:22:26;;;;;;;6.65;3.38;;;18.60;66.80;;;;;;5123178;28;20027;-44
2020/12/11 10:24:51;;;;;;;6.80;3.40;;;18.60;67.10;;;;;;5122772;28;20059;-44
2020/12/11 10:27:17;;;;;;;7.13;3.10;;;18.60;67.30;;;;;;5123416;28;20384;-45
2020/12/11 10:29:42;;;;;;;6.10;3.47;;;18.70;67.30;;;;;;5124388;28;20027;-45
2020/12/11 10:32:08;;;;;;;6.35;4.32;;;18.70;67.40;;;;;;5123334;28;20122;-47
2020/12/11 10:36:12;;;;;;;5.78;3.70;;;18.70;65.90;;;;;;5104990;27;20361;-48
2020/12/11 10:38:38;;;;;;;4.25;3.35;;;18.90;65.90;;;;;;5045076;28;20063;-46
2020/12/11 10:41:03;;;;;;;5.53;3.35;;;19.00;65.40;;;;;;5059154;28;20061;-51
2020/12/11 10:43:29;;;;;;;3.95;3.25;;;19.00;65.20;;;;;;5041863;28;20455;-50
2020/12/11 10:45:54;;;;;;;6.03;3.05;;;19.00;65.10;;;;;;5061682;28;20036;-47
2020/12/11 10:48:20;;;;;;;3.75;3.00;;;19.00;65.00;;;;;;5062656;28;20079;-48
2020/12/11 10:50:46;;;;;;;3.72;3.20;;;19.00;65.00;;;;;;5054351;28;20037;-49
2020/12/11 10:53:11;;;;;;;5.65;2.85;;;19.00;65.00;;;;;;5059242;28;20130;-45
2020/12/11 10:55:37;;;;;;;3.75;2.80;;;19.00;64.90;;;;;;5051711;28;20057;-49
2020/12/11 10:58:02;;;;;;;5.65;2.80;;;19.10;65.00;;;;;;5054610;28;20504;-49
2020/12/11 11:00:28;;;;;;;4.40;3.10;;;19.00;65.00;;;;;;5063088;28;20044;-46
2020/12/11 11:02:53;;;;;;;4.77;2.97;;;19.10;64.90;;;;;;4711072;28;10000269;-48
2020/12/11 11:05:19;;;;;;;4.82;3.00;;;19.10;64.80;;;;;;5062037;28;20044;-47
2020/12/11 11:07:45;;;;;;;3.17;2.45;;;19.10;64.80;;;;;;5061629;28;20044;-46
2020/12/11 11:12:42;;;;;;;2.70;2.40;;;19.00;65.00;;;;;;5057645;28;20047;-45
2020/12/11 11:23:11;;;;;;;5.60;2.78;;;19.10;65.80;;;;;;5059180;28;20181;-45
2020/12/11 11:28:14;;;;;;;3.00;2.67;;;19.10;66.20;;;;;;5059489;28;20052;-45
2020/12/11 11:30:40;;;;;;;5.43;2.63;;;19.10;67.10;;;;;;5057428;28;20052;-44
2020/12/11 11:33:05;;;;;;;5.53;2.60;;;19.10;66.30;;;;;;5060569;28;20178;-44
2020/12/11 11:35:31;;;;;;;2.67;2.13;;;19.20;66.00;;;;;;5062465;28;20504;-44
2020/12/11 11:37:57;;;;;;;4.57;2.40;;;19.20;66.50;;;;;;5059023;28;20048;-43
2020/12/11 11:40:24;;;;;;;4.78;2.40;;;19.20;65.70;;;;;;5057588;28;20114;-48
2020/12/11 11:42:52;;;;;;;8.75;2.22;;;19.20;66.20;;;;;;5058445;28;20037;-46
2020/12/11 11:45:20;;;;;;;7.97;2.55;;;19.30;65.90;;;;;;5056941;28;20052;-44
2020/12/11 11:47:51;;;;;;;7.88;2.83;;;19.30;66.30;;;;;;5039855;28;20037;-46
2020/12/11 11:53:04;;;;;;;6.32;2.75;;;19.40;66.60;;;;;;5042737;28;20059;-42
2020/12/11 11:55:30;;;;;;;2.78;2.00;;;19.40;66.70;;;;;;5041738;28;20057;-45
2020/12/11 11:57:55;;;;;;;5.53;2.40;;;19.50;66.50;;;;;;5039915;28;20057;-46
2020/12/11 12:00:21;;;;;;;7.40;2.25;;;19.50;66.30;;;;;;5036141;28;20191;-47
2020/12/11 12:02:47;;;;;;;6.60;2.63;;;19.50;66.20;;;;;;5031211;28;20061;-46
2020/12/11 12:05:13;;;;;;;5.50;1.90;;;19.50;65.90;;;;;;5040870;28;20045;-47
2020/12/11 12:07:39;;;;;;;6.82;2.03;;;19.50;66.00;;;;;;5038336;28;20056;-45
2020/12/11 12:10:06;;;;;;;3.38;2.17;;;19.50;66.00;;;;;;5041121;28;20045;-43
2020/12/11 12:12:37;;;;;;;2.20;2.00;;;19.60;66.00;;;;;;5044743;28;20060;-45
2020/12/11 12:15:03;;;;;;;6.35;2.15;;;19.60;65.90;;;;;;5035873;28;20057;-46
2020/12/11 12:17:36;;;;;;;3.90;1.88;;;19.60;65.70;;;;;;5047030;28;20071;-47
2020/12/11 12:20:05;;;;;;;2.47;1.80;;;19.60;65.70;;;;;;5045377;28;20078;-48
2020/12/11 12:30:34;;;;;;;5.93;1.98;;;19.60;65.50;;;;;;5045883;28;20041;-47
2020/12/11 12:36:06;;;;;;;2.70;2.00;;;19.60;65.10;;;;;;5032052;28;20094;-47
2020/12/11 12:43:42;;;;;;;2.03;1.83;;;19.60;65.20;;;;;;5032938;28;20040;-43
2020/12/11 12:46:08;;;;;;;2.65;2.00;;;19.60;65.10;;;;;;5037789;28;20048;-43
2020/12/11 12:48:33;;;;;;;3.78;1.73;;;19.60;64.80;;;;;;5030421;28;20057;-44
2020/12/11 12:50:59;;;;;;;6.80;2.13;;;19.60;64.70;;;;;;5042647;28;20045;-45
2020/12/11 12:53:25;;;;;;;3.70;1.80;;;19.60;64.60;;;;;;5041938;28;20068;-44
2020/12/11 12:58:42;;;;;;;4.10;1.75;;;19.60;64.40;;;;;;5020435;28;20037;-45
2020/12/11 13:01:18;;;;;;;2.13;1.70;;;19.60;64.50;;;;;;5030325;28;20140;-45
2020/12/11 13:06:12;;;;;;;3.00;1.95;;;19.60;64.30;;;;;;5022800;28;20033;-45
2020/12/11 13:08:38;;;;;;;3.35;1.60;;;19.60;64.30;;;;;;5026188;28;20060;-44
2020/12/11 13:11:03;;;;;;;3.45;1.63;;;19.60;64.10;;;;;;5027077;28;20053;-48
2020/12/11 13:13:29;;;;;;;2.58;1.67;;;19.60;64.20;;;;;;5024743;28;20049;-47
2020/12/11 13:15:54;;;;;;;5.68;2.13;;;19.60;64.20;;;;;;5022079;28;20505;-45
2020/12/11 13:18:20;;;;;;;4.15;2.35;;;19.60;64.10;;;;;;5023755;28;20074;-44
2020/12/11 13:20:46;;;;;;;4.35;1.92;;;19.70;64.00;;;;;;5009338;28;20038;-46
2020/12/11 13:26:15;;;;;;;3.60;1.98;;;19.70;63.80;;;;;;5024708;28;20544;-46
2020/12/11 13:28:40;;;;;;;5.80;2.08;;;19.70;63.80;;;;;;5023452;28;20041;-47
2020/12/11 13:31:06;;;;;;;1.95;1.80;;;19.70;63.80;;;;;;5020522;28;20049;-46
2020/12/11 13:33:32;;;;;;;3.55;1.80;;;19.80;63.70;;;;;;5015023;28;20026;-48
2020/12/11 13:35:57;;;;;;;3.97;2.08;;;19.80;63.60;;;;;;5038026;28;20067;-46
2020/12/11 13:38:23;;;;;;;3.63;1.60;;;19.80;63.60;;;;;;5048410;28;20535;-44
2020/12/11 13:40:48;;;;;;;1.98;1.77;;;19.80;63.60;;;;;;5043952;28;20055;-46
2020/12/11 13:43:14;;;;;;;4.05;2.28;;;19.80;63.50;;;;;;5040190;28;20056;-46
2020/12/11 13:45:39;;;;;;;2.03;1.52;;;19.80;63.50;;;;;;5044671;28;20442;-45
2020/12/11 13:48:05;;;;;;;4.95;2.08;;;19.80;63.40;;;;;;5044447;28;20045;-45
2020/12/11 13:50:31;;;;;;;2.13;1.70;;;19.80;64.30;;;;;;5048919;28;20049;-43
2020/12/11 13:52:56;;;;;;;3.08;1.85;;;19.80;63.40;;;;;;5045086;28;20048;-45
2020/12/11 13:55:22;;;;;;;3.17;1.90;;;19.80;63.50;;;;;;5045218;28;20420;-43
2020/12/11 13:57:47;;;;;;;2.53;1.88;;;19.80;63.40;;;;;;5044884;28;20154;-45
2020/12/11 14:00:13;;;;;;;3.25;1.67;;;19.80;63.40;;;;;;5046496;28;20048;-44
2020/12/11 14:02:40;;;;;;;2.72;1.73;;;19.80;63.60;;;;;;5046072;28;20103;-43
2020/12/11 14:05:05;;;;;;;1.98;1.77;;;19.80;63.60;;;;;;5048145;28;20079;-43
2020/12/11 14:07:31;;;;;;;3.33;2.10;;;19.80;64.90;;;;;;5046633;28;20474;-44
2020/12/11 14:09:56;;;;;;;1.63;1.30;;;19.80;64.50;;;;;;5044879;28;20081;-44
2020/12/11 14:12:22;;;;;;;3.85;1.42;;;19.80;64.10;;;;;;5043045;28;20048;-44
2020/12/11 14:14:48;;;;;;;1.60;1.48;;;19.70;63.70;;;;;;5043797;28;20048;-46
2020/12/11 14:17:17;;;;;;;3.22;1.80;;;19.80;63.60;;;;;;5045632;28;20044;-46
2020/12/11 14:22:42;;;;;;;5.55;2.85;;;19.70;63.60;;;;;;5035505;28;20056;-43
2020/12/11 14:25:07;;;;;;;5.00;3.33;;;19.70;64.20;;;;;;5037235;28;20078;-44
2020/12/11 14:27:33;;;;;;;7.90;3.35;;;19.70;64.30;;;;;;5043428;28;20037;-43
2020/12/11 14:29:59;;;;;;;6.75;5.22;;;19.70;64.00;;;;;;5042043;28;20053;-43
2020/12/11 14:32:24;;;;;;;17.38;9.65;;;19.80;63.60;;;;;;5060667;28;20478;-43
2020/12/11 14:34:53;;;;;;;19.60;11.45;;;19.80;63.70;;;;;;5043441;28;20045;-43
2020/12/11 14:37:19;;;;;;;8.90;6.03;;;19.80;63.80;;;;;;5038038;28;20049;-42
2020/12/11 14:39:45;;;;;;;21.33;10.75;;;19.70;63.80;;;;;;5043235;28;20056;-43
2020/12/11 14:42:10;;;;;;;11.32;8.02;;;19.80;63.60;;;;;;5043542;28;20092;-45
2020/12/11 14:44:36;;;;;;;14.10;9.07;;;19.80;63.70;;;;;;5043429;28;20041;-44
2020/12/11 14:47:02;;;;;;;17.25;10.63;;;19.80;63.60;;;;;;5046842;28;20044;-44
2020/12/11 14:49:28;;;;;;;19.27;12.15;;;19.80;63.40;;;;;;5040136;28;20156;-46
2020/12/11 14:51:53;;;;;;;15.25;10.45;;;19.80;63.30;;;;;;5044395;28;20848;-44
2020/12/11 14:54:19;;;;;;;10.75;8.95;;;19.80;63.50;;;;;;5045777;28;20053;-44
2020/12/11 14:56:46;;;;;;;14.27;8.68;;;19.70;63.60;;;;;;5046744;28;20459;-43
2020/12/11 14:59:12;;;;;;;16.65;10.57;;;19.70;63.60;;;;;;5046994;28;20049;-43
2020/12/11 15:01:38;;;;;;;12.98;10.00;;;19.80;63.60;;;;;;5042974;28;20664;-45
2020/12/11 15:04:03;;;;;;;12.30;10.18;;;19.70;63.40;;;;;;5043623;28;20135;-47
2020/12/11 15:06:29;;;;;;;14.40;8.98;;;19.80;63.40;;;;;;5046008;28;20453;-45
2020/12/11 15:08:56;;;;;;;11.27;8.63;;;19.70;63.40;;;;;;5046479;28;20066;-43
2020/12/11 15:11:21;;;;;;;12.65;9.27;;;19.70;63.90;;;;;;5045918;28;20044;-44
2020/12/11 15:13:47;;;;;;;18.27;9.32;;;19.70;63.40;;;;;;5044916;28;20045;-43
2020/12/11 15:16:12;;;;;;;13.07;9.00;;;19.70;63.40;;;;;;5045504;28;20132;-43
2020/12/11 15:18:38;;;;;;;10.52;8.40;;;19.70;63.40;;;;;;5042521;28;20041;-42
2020/12/11 15:21:04;;;;;;;11.43;8.85;;;19.70;63.60;;;;;;5042716;28;20825;-44
2020/12/11 15:23:30;;;;;;;14.65;8.98;;;19.70;63.60;;;;;;5047501;28;20049;-44
2020/12/11 15:25:56;;;;;;;15.40;9.40;;;19.70;63.40;;;;;;5045218;28;20512;-45
2020/12/11 15:28:22;;;;;;;15.18;10.20;;;19.70;63.40;;;;;;5045225;28;20049;-44
2020/12/11 15:30:47;;;;;;;10.35;8.13;;;19.70;63.30;;;;;;5043426;28;20040;-41
2020/12/11 15:33:13;;;;;;;10.32;7.53;;;19.70;63.40;;;;;;5046180;28;20119;-45
2020/12/11 15:35:39;;;;;;;43.15;7.90;;;19.70;63.40;;;;;;5045670;28;20140;-45
2020/12/11 15:38:05;;;;;;;12.32;7.65;;;19.70;63.40;;;;;;5046828;28;20049;-43
2020/12/11 15:40:30;;;;;;;13.45;7.70;;;19.70;63.40;;;;;;5043213;28;20454;-46
2020/12/11 15:42:56;;;;;;;10.80;7.60;;;19.70;63.40;;;;;;5043017;28;20049;-43
2020/12/11 15:45:22;;;;;;;11.35;7.72;;;19.70;63.50;;;;;;5046490;28;20536;-45
2020/12/11 15:47:53;;;;;;;12.40;9.50;;;19.70;63.40;;;;;;5043440;28;20095;-45
2020/12/11 15:50:27;;;;;;;14.07;9.77;;;19.80;63.50;;;;;;5041673;28;20504;-44
2020/12/11 15:52:56;;;;;;;18.13;8.15;;;19.80;63.60;;;;;;5041522;28;20056;-46
2020/12/11 15:55:22;;;;;;;11.82;7.93;;;19.70;63.60;;;;;;5038049;28;20057;-46
2020/12/11 15:57:48;;;;;;;14.95;9.30;;;19.70;63.50;;;;;;5040682;28;20083;-46
2020/12/11 16:00:14;;;;;;;16.27;9.20;;;19.70;63.50;;;;;;5042451;28;20480;-43
2020/12/11 16:02:40;;;;;;;14.77;8.52;;;19.70;63.70;;;;;;5040100;28;20048;-47
2020/12/11 16:05:05;;;;;;;14.20;9.40;;;19.80;63.60;;;;;;5039345;28;20041;-45
2020/12/11 16:07:31;;;;;;;9.40;8.07;;;19.80;63.60;;;;;;5045015;28;20128;-45
2020/12/11 16:09:57;;;;;;;11.23;8.15;;;19.80;63.50;;;;;;5042836;28;20049;-43
2020/12/11 16:12:22;;;;;;;12.23;7.63;;;19.80;63.20;;;;;;5044255;28;20057;-45
2020/12/11 16:14:48;;;;;;;9.82;7.22;;;19.80;64.50;;;;;;5040301;28;20048;-44
2020/12/11 16:17:13;;;;;;;11.00;8.00;;;19.80;63.40;;;;;;5045122;28;20667;-44
2020/12/11 16:19:39;;;;;;;11.48;8.43;;;19.80;63.30;;;;;;5044972;28;20076;-43
2020/12/11 16:22:04;;;;;;;12.55;8.13;;;19.80;63.20;;;;;;5043908;28;20064;-45
2020/12/11 16:24:30;;;;;;;9.15;7.10;;;19.80;63.30;;;;;;5040955;28;20053;-43
2020/12/11 16:26:56;;;;;;;11.68;7.53;;;19.80;63.20;;;;;;5043783;28;20044;-45
2020/12/11 16:29:21;;;;;;;9.60;7.70;;;19.80;63.00;;;;;;5038831;28;20087;-47
2020/12/11 16:31:50;;;;;;;9.25;7.40;;;19.90;63.00;;;;;;5042653;28;20041;-48
2020/12/11 16:34:19;;;;;;;8.98;7.50;;;19.90;62.70;;;;;;5031019;28;20056;-46
2020/12/11 16:36:50;;;;;;;8.05;6.78;;;19.80;62.70;;;;;;4692481;28;10000518;-46
2020/12/11 16:39:16;;;;;;;7.68;6.80;;;19.80;62.80;;;;;;5041994;28;20710;-45
2020/12/11 16:41:43;;;;;;;10.23;7.22;;;19.70;62.90;;;;;;5041590;28;20145;-45
2020/12/11 16:44:17;;;;;;;8.27;6.55;;;19.80;63.10;;;;;;5041416;28;20064;-47
2020/12/11 16:46:52;;;;;;;7.97;6.68;;;19.80;62.90;;;;;;5042056;28;20088;-44
2020/12/11 16:49:22;;;;;;;7.32;5.90;;;19.80;62.80;;;;;;5042786;28;20069;-45
2020/12/11 16:51:48;;;;;;;7.43;6.03;;;19.80;62.80;;;;;;5043912;28;20045;-45
2020/12/11 16:54:14;;;;;;;7.30;6.55;;;19.80;62.80;;;;;;5039528;28;20681;-45
2020/12/11 16:56:39;;;;;;;7.22;5.90;;;19.80;62.60;;;;;;5042953;28;20733;-45
2020/12/11 16:59:06;;;;;;;9.55;5.82;;;19.80;62.50;;;;;;5037307;28;20041;-44
2020/12/11 17:01:36;;;;;;;9.50;5.50;;;19.80;62.80;;;;;;5040418;28;20131;-43
2020/12/11 17:04:23;;;;;;;8.30;5.68;;;19.80;63.00;;;;;;5036865;28;20045;-46
2020/12/11 17:07:00;;;;;;;8.13;5.50;;;19.90;63.50;;;;;;5042700;28;20044;-44
2020/12/11 17:09:26;;;;;;;7.38;5.78;;;19.90;62.90;;;;;;5039000;28;20108;-44
2020/12/11 17:11:59;;;;;;;5.70;5.10;;;19.90;62.80;;;;;;5021574;28;20053;-44
2020/12/11 17:14:25;;;;;;;5.38;4.68;;;19.90;62.60;;;;;;5030493;28;20045;-45
2020/12/11 17:16:51;;;;;;;4.90;4.30;;;19.90;62.60;;;;;;5071782;28;20092;-44
2020/12/11 17:19:28;;;;;;;5.55;5.07;;;19.90;62.60;;;;;;5043387;28;20207;-45
2020/12/11 17:21:54;;;;;;;5.30;4.67;;;19.90;62.70;;;;;;4687340;28;10000397;-43
2020/12/11 17:24:21;;;;;;;5.10;4.65;;;19.90;62.90;;;;;;5040499;28;20821;-44
2020/12/11 17:26:47;;;;;;;5.13;4.72;;;20.00;62.80;;;;;;5039902;28;20037;-43
2020/12/11 17:29:16;;;;;;;5.00;4.60;;;19.90;62.80;;;;;;5040758;28;20102;-44
2020/12/11 17:31:51;;;;;;;6.15;4.70;;;19.90;62.70;;;;;;5041905;28;20040;-44
2020/12/11 17:37:17;;;;;;;6.53;4.40;;;20.00;62.80;;;;;;5015140;28;20053;-44
2020/12/11 17:39:45;;;;;;;4.70;4.30;;;20.00;63.00;;;;;;5020600;28;20493;-43
2020/12/11 17:42:10;;;;;;;10.43;4.85;;;20.00;62.80;;;;;;5019759;28;20547;-44
2020/12/11 17:44:36;;;;;;;4.90;4.35;;;20.00;62.80;;;;;;5023499;28;20064;-44
2020/12/11 17:47:02;;;;;;;4.40;3.78;;;20.00;62.60;;;;;;5023152;28;20037;-44
2020/12/11 17:49:27;;;;;;;5.25;4.07;;;20.00;62.60;;;;;;5016003;28;20660;-45
2020/12/11 17:51:53;;;;;;;7.63;4.22;;;20.00;62.60;;;;;;5005808;28;20069;-43
2020/12/11 17:54:22;;;;;;;5.50;4.38;;;20.00;62.50;;;;;;5017715;28;20084;-44
2020/12/11 17:56:47;;;;;;;7.47;4.30;;;20.00;62.80;;;;;;5012032;28;20053;-44
2020/12/11 17:59:13;;;;;;;5.13;3.92;;;20.00;63.00;;;;;;5007881;28;20513;-46
2020/12/11 18:01:39;;;;;;;4.93;3.97;;;20.00;63.20;;;;;;5022251;28;20564;-44
2020/12/11 18:04:04;;;;;;;5.13;3.75;;;20.00;63.20;;;;;;5021051;28;20054;-43
2020/12/11 18:06:32;;;;;;;5.32;4.50;;;20.00;63.20;;;;;;5022154;28;20045;-45
2020/12/11 18:08:57;;;;;;;8.23;3.50;;;20.00;63.10;;;;;;5013962;28;20029;-42
2020/12/11 18:11:27;;;;;;;6.97;3.88;;;20.00;63.70;;;;;;5021823;28;20555;-43
2020/12/11 18:13:53;;;;;;;5.20;4.05;;;20.00;62.90;;;;;;5042473;28;20128;-42
2020/12/11 18:16:19;;;;;;;4.97;4.53;;;20.00;63.60;;;;;;5040358;28;20059;-43
2020/12/11 18:18:45;;;;;;;5.53;4.10;;;20.00;64.20;;;;;;5041828;28;20811;-43
2020/12/11 18:21:10;;;;;;;5.15;4.53;;;20.00;64.00;;;;;;5021408;28;20051;-42
2020/12/11 18:23:36;;;;;;;7.20;4.47;;;19.90;64.10;;;;;;5040950;28;20079;-42
2020/12/11 18:26:02;;;;;;;4.75;4.32;;;19.90;64.00;;;;;;5040708;28;20049;-43
2020/12/11 18:28:30;;;;;;;4.80;4.22;;;20.00;64.10;;;;;;5038750;28;20439;-44
2020/12/11 18:30:56;;;;;;;5.95;4.85;;;20.00;64.00;;;;;;5051807;28;20051;-44
2020/12/11 18:33:21;;;;;;;6.95;5.75;;;20.00;63.70;;;;;;5041342;28;20049;-49
2020/12/11 18:35:47;;;;;;;6.82;5.30;;;20.00;63.70;;;;;;5033524;28;20052;-46
2020/12/11 18:38:13;;;;;;;11.30;8.23;;;20.00;63.80;;;;;;5031631;28;20044;-45
2020/12/11 18:40:38;;;;;;;12.15;8.02;;;20.00;63.60;;;;;;5033380;28;20507;-43
2020/12/11 18:43:04;;;;;;;10.43;6.88;;;20.00;63.40;;;;;;5038446;28;20152;-44
2020/12/11 18:45:30;;;;;;;8.68;6.78;;;20.00;63.40;;;;;;5005354;28;20053;-44
2020/12/11 18:47:57;;;;;;;8.50;6.22;;;20.00;63.30;;;;;;5025388;28;20076;-45
2020/12/11 18:50:25;;;;;;;8.43;6.95;;;20.10;63.30;;;;;;5030841;28;20128;-45
2020/12/11 18:52:51;;;;;;;10.63;7.72;;;20.10;63.00;;;;;;5038924;28;20527;-44
2020/12/11 18:55:23;;;;;;;11.70;8.43;;;20.00;62.90;;;;;;5039391;28;20106;-45
2020/12/11 18:57:49;;;;;;;8.10;7.25;;;20.10;63.10;;;;;;5030954;28;20479;-44
2020/12/11 19:00:15;;;;;;;10.60;6.93;;;20.00;62.80;;;;;;5031742;28;20049;-43
2020/12/11 19:02:43;;;;;;;10.23;7.05;;;20.00;63.40;;;;;;5041828;28;20044;-47
2020/12/11 19:05:09;;;;;;;13.15;7.22;;;20.10;63.40;;;;;;5046349;28;20056;-46
2020/12/11 19:07:35;;;;;;;17.17;7.50;;;20.10;63.40;;;;;;5042334;28;20164;-45
2020/12/11 19:10:01;;;;;;;8.43;7.30;;;20.00;63.60;;;;;;5042250;28;20045;-44
2020/12/11 19:12:27;;;;;;;9.05;6.82;;;20.00;63.80;;;;;;5041097;28;20044;-49
2020/12/11 19:14:52;;;;;;;9.82;6.93;;;20.10;63.70;;;;;;5023161;28;20053;-46
2020/12/11 19:17:18;;;;;;;8.80;6.78;;;20.00;63.60;;;;;;5037750;28;20037;-48
2020/12/11 19:19:44;;;;;;;9.57;7.18;;;20.00;63.80;;;;;;5038486;28;20455;-46
2020/12/11 19:22:10;;;;;;;9.30;6.63;;;20.00;63.90;;;;;;5033939;28;20746;-47
2020/12/11 19:24:35;;;;;;;10.30;6.50;;;20.00;63.90;;;;;;5031295;28;20606;-46
2020/12/11 19:27:01;;;;;;;8.55;6.60;;;20.00;64.00;;;;;;5041443;28;20044;-46
2020/12/11 19:29:27;;;;;;;9.27;6.30;;;20.00;64.10;;;;;;5044621;28;20415;-47
2020/12/11 19:31:53;;;;;;;9.30;6.82;;;20.00;64.00;;;;;;5041567;28;20048;-45
2020/12/11 19:34:19;;;;;;;10.20;5.68;;;20.00;64.00;;;;;;5036894;28;20140;-49
2020/12/11 19:36:45;;;;;;;9.80;6.18;;;20.00;64.00;;;;;;5038943;28;20678;-50
2020/12/11 19:39:11;;;;;;;7.03;6.32;;;20.00;64.20;;;;;;5035164;28;20044;-47
2020/12/11 19:41:37;;;;;;;9.55;6.47;;;20.10;64.20;;;;;;5043597;28;20045;-46
2020/12/11 19:44:05;;;;;;;7.15;6.40;;;20.10;64.10;;;;;;5035179;28;20056;-41
2020/12/11 19:46:32;;;;;;;8.88;6.43;;;20.10;64.10;;;;;;5042443;28;20104;-44
2020/12/11 19:49:01;;;;;;;8.05;6.20;;;20.10;64.10;;;;;;5028573;28;20072;-43
2020/12/11 19:51:27;;;;;;;7.80;5.22;;;20.10;64.20;;;;;;5042276;28;20044;-42
2020/12/11 19:53:52;;;;;;;6.13;4.97;;;20.10;64.10;;;;;;5043217;28;20049;-42
2020/12/11 19:56:18;;;;;;;6.18;5.40;;;20.10;64.20;;;;;;5038469;28;20052;-42
2020/12/11 19:58:44;;;;;;;9.15;7.03;;;20.10;64.30;;;;;;5041509;28;20048;-42
2020/12/11 20:01:10;;;;;;;11.95;9.13;;;20.10;64.40;;;;;;5038717;28;20049;-42
2020/12/11 20:03:35;;;;;;;11.60;7.80;;;20.10;64.30;;;;;;5040895;28;20512;-42
2020/12/11 20:06:07;;;;;;;9.40;7.30;;;20.10;64.30;;;;;;5041705;28;20051;-41
2020/12/11 20:11:18;;;;;;;11.20;7.20;;;20.10;64.50;;;;;;5040514;28;20095;-42
2020/12/11 20:13:43;;;;;;;11.45;7.95;;;20.10;64.50;;;;;;5041366;28;20334;-43
2020/12/11 20:16:09;;;;;;;13.80;7.68;;;20.10;64.50;;;;;;5044369;28;20135;-43
2020/12/11 20:18:34;;;;;;;17.83;8.73;;;20.10;64.70;;;;;;5042518;28;20048;-45
2020/12/11 20:21:00;;;;;;;13.57;7.78;;;20.10;64.50;;;;;;5044939;28;20045;-43
2020/12/11 20:23:28;;;;;;;13.25;7.13;;;20.00;64.70;;;;;;5040228;28;20101;-43
2020/12/11 20:25:53;;;;;;;13.70;8.18;;;20.10;65.00;;;;;;5040325;28;20052;-43
2020/12/11 20:28:20;;;;;;;13.85;8.65;;;20.10;64.80;;;;;;5039952;28;20025;-44
2020/12/11 20:30:45;;;;;;;9.77;7.75;;;20.10;64.70;;;;;;5040387;28;20573;-43
2020/12/11 20:33:11;;;;;;;9.95;6.75;;;20.10;64.90;;;;;;5039840;28;20046;-43
2020/12/11 20:35:36;;;;;;;13.07;7.28;;;20.10;65.10;;;;;;5043621;28;20049;-45
2020/12/11 20:38:02;;;;;;;11.77;6.65;;;20.10;65.00;;;;;;5043646;28;20107;-43
2020/12/11 20:40:28;;;;;;;11.18;6.40;;;20.10;65.00;;;;;;5041598;28;20048;-44
2020/12/11 20:42:53;;;;;;;12.57;7.50;;;20.10;64.80;;;;;;5037582;28;20455;-45
2020/12/11 20:45:19;;;;;;;9.90;6.55;;;20.00;65.10;;;;;;5019574;28;20044;-43
2020/12/11 20:47:44;;;;;;;9.73;6.70;;;20.10;65.40;;;;;;5044116;28;20057;-45
2020/12/11 20:50:10;;;;;;;8.73;7.20;;;20.10;65.00;;;;;;5043329;28;20044;-44
2020/12/11 20:52:36;;;;;;;9.50;6.18;;;20.10;65.30;;;;;;5043284;28;20424;-44
2020/12/11 20:55:01;;;;;;;10.45;6.30;;;20.10;65.20;;;;;;5041953;28;20053;-43
2020/12/11 20:57:27;;;;;;;9.68;6.03;;;20.10;65.30;;;;;;5039950;28;20045;-44
2020/12/11 20:59:53;;;;;;;7.25;5.97;;;20.10;65.30;;;;;;5044171;28;20492;-45
2020/12/11 21:02:19;;;;;;;6.68;5.97;;;20.10;65.20;;;;;;5043633;28;20057;-44
2020/12/11 21:04:45;;;;;;;8.70;5.93;;;20.10;65.30;;;;;;5042199;28;20131;-45
2020/12/11 21:07:10;;;;;;;8.68;6.13;;;20.10;65.40;;;;;;5040481;28;20159;-44
2020/12/11 21:09:38;;;;;;;7.72;6.10;;;20.10;65.30;;;;;;5042258;28;20041;-45
2020/12/11 21:12:04;;;;;;;9.27;5.40;;;20.10;65.60;;;;;;5042867;28;20055;-43
2020/12/11 21:14:29;;;;;;;12.52;5.22;;;20.10;65.60;;;;;;5045177;28;20029;-44
2020/12/11 21:16:55;;;;;;;5.93;5.05;;;20.10;65.90;;;;;;5041113;28;20507;-45
2020/12/11 21:19:21;;;;;;;6.35;5.75;;;20.10;65.80;;;;;;5037691;28;20056;-44
2020/12/11 21:21:47;;;;;;;8.63;5.00;;;20.10;65.70;;;;;;5042088;28;20052;-43
2020/12/11 21:24:14;;;;;;;6.65;5.00;;;20.10;65.70;;;;;;5039403;28;20037;-45
2020/12/11 21:26:39;;;;;;;10.80;6.18;;;20.10;65.80;;;;;;5036539;28;20094;-44
2020/12/11 21:29:05;;;;;;;11.18;4.80;;;20.10;65.70;;;;;;5042816;28;20060;-44
2020/12/11 21:31:31;;;;;;;6.70;4.70;;;20.10;65.90;;;;;;5036493;28;20029;-44
2020/12/11 21:36:40;;;;;;;6.47;4.50;;;20.10;65.70;;;;;;5040138;28;20119;-43
2020/12/11 21:39:06;;;;;;;6.47;4.63;;;20.10;65.60;;;;;;5041435;28;20576;-43
2020/12/11 21:41:32;;;;;;;7.97;4.57;;;20.10;66.20;;;;;;5033492;28;20048;-45
2020/12/11 21:43:57;;;;;;;5.40;4.10;;;20.10;66.70;;;;;;5029046;28;20045;-44
2020/12/11 21:46:24;;;;;;;6.38;3.90;;;20.10;66.70;;;;;;5019557;28;20734;-44
2020/12/11 21:48:50;;;;;;;4.80;4.18;;;20.10;66.20;;;;;;5020696;28;20087;-45
2020/12/11 21:51:16;;;;;;;5.28;4.07;;;20.10;65.90;;;;;;5020264;28;20033;-45
2020/12/11 21:53:41;;;;;;;7.55;3.88;;;20.10;66.00;;;;;;5021798;28;20112;-44
2020/12/11 21:56:07;;;;;;;7.53;3.95;;;20.10;65.90;;;;;;5038339;28;20544;-45
2020/12/11 21:58:34;;;;;;;10.13;3.90;;;20.10;66.00;;;;;;5031013;28;20052;-45
2020/12/11 22:00:59;;;;;;;5.65;3.80;;;20.10;66.00;;;;;;5027289;28;20053;-44
2020/12/11 22:03:28;;;;;;;9.93;3.95;;;20.10;66.10;;;;;;5016064;28;20053;-43
2020/12/11 22:05:54;;;;;;;3.88;3.50;;;20.10;65.90;;;;;;5035425;28;20037;-45
2020/12/11 22:08:20;;;;;;;6.18;3.58;;;20.10;66.10;;;;;;5042757;28;20045;-45
2020/12/11 22:10:48;;;;;;;9.27;4.05;;;20.10;66.10;;;;;;5038828;28;20511;-44
2020/12/11 22:13:15;;;;;;;6.15;3.75;;;20.10;66.00;;;;;;5041793;28;20048;-46
2020/12/11 22:15:40;;;;;;;4.47;3.55;;;20.20;66.20;;;;;;5035733;28;20134;-43
2020/12/11 22:18:06;;;;;;;7.70;3.67;;;20.10;66.10;;;;;;5037853;28;20048;-43
2020/12/11 22:20:31;;;;;;;8.90;3.83;;;20.10;66.10;;;;;;5040978;28;20072;-44
2020/12/11 22:22:58;;;;;;;7.15;3.97;;;20.10;66.10;;;;;;5042320;28;20045;-44
